Time;durP1;ratioP1;P1;durP2;ratioP2;P2;SDS_P1;SDS_P2;PMS_P1;PMS_P2;Temp;Humidity;BMP_temperature;BMP_pressure;BME280_temperature;BME280_humidity;BME280_pressure;Samples;Min_cycle;Max_cycle;Signal;HPM_P1;HPM_P2
2021/05/17 00:02:22;;;;;;;4.30;3.60;;;10.40;99.90;;;;;;5013854;28;20660;-71
2021/05/17 00:04:49;;;;;;;3.80;3.33;;;10.30;99.90;;;;;;5014655;28;20182;-71
2021/05/17 00:07:16;;;;;;;3.97;3.63;;;10.20;99.90;;;;;;5016662;28;20429;-72
2021/05/17 00:09:42;;;;;;;3.80;3.50;;;10.10;99.90;;;;;;5024697;28;20496;-72
2021/05/17 00:12:09;;;;;;;3.87;3.57;;;10.10;99.90;;;;;;5020403;28;20433;-72
2021/05/17 00:14:35;;;;;;;3.13;2.93;;;10.10;99.90;;;;;;5016309;28;20427;-73
2021/05/17 00:17:02;;;;;;;4.10;3.70;;;10.00;99.90;;;;;;5017416;28;20801;-73
2021/05/17 00:19:28;;;;;;;4.10;3.80;;;10.00;99.90;;;;;;5017119;28;20440;-73
2021/05/17 00:21:54;;;;;;;4.13;3.83;;;10.00;99.90;;;;;;5016025;28;20442;-73
2021/05/17 00:24:21;;;;;;;3.43;3.13;;;10.00;99.90;;;;;;5021237;28;20678;-73
2021/05/17 00:26:47;;;;;;;5.20;3.93;;;10.00;99.90;;;;;;5020516;28;20844;-73
2021/05/17 00:29:14;;;;;;;9.90;3.60;;;9.90;99.90;;;;;;5022939;28;20456;-73
2021/05/17 00:31:41;;;;;;;6.07;3.23;;;9.90;99.90;;;;;;5021229;28;20433;-72
2021/05/17 00:34:08;;;;;;;6.30;3.67;;;9.80;99.90;;;;;;5021236;28;21819;-72
2021/05/17 00:36:35;;;;;;;3.63;3.40;;;9.80;99.90;;;;;;5017892;28;20430;-73
2021/05/17 00:39:04;;;;;;;3.43;3.07;;;9.80;99.90;;;;;;5019832;28;20421;-72
2021/05/17 00:41:29;;;;;;;3.57;3.27;;;9.80;99.90;;;;;;5022559;28;20524;-73
2021/05/17 00:43:56;;;;;;;3.53;3.10;;;9.70;99.90;;;;;;5019115;28;20520;-73
2021/05/17 00:46:24;;;;;;;3.70;3.50;;;9.70;99.90;;;;;;5018048;28;20196;-73
2021/05/17 00:48:50;;;;;;;3.47;3.17;;;9.70;99.90;;;;;;5018420;28;20907;-72
2021/05/17 00:51:16;;;;;;;3.90;3.60;;;9.70;99.90;;;;;;5020417;28;20958;-73
2021/05/17 00:53:43;;;;;;;3.77;3.57;;;9.70;99.90;;;;;;5019274;28;21020;-73
2021/05/17 00:56:10;;;;;;;3.37;3.13;;;9.60;99.90;;;;;;5017673;28;20917;-73
2021/05/17 00:58:36;;;;;;;3.73;3.03;;;9.60;99.90;;;;;;5022009;28;20569;-73
2021/05/17 01:01:03;;;;;;;3.33;3.13;;;9.60;99.90;;;;;;5019822;28;20461;-73
2021/05/17 01:03:29;;;;;;;5.00;3.60;;;9.50;99.90;;;;;;5017900;28;20433;-72
2021/05/17 01:05:56;;;;;;;3.60;3.30;;;9.50;99.90;;;;;;5018630;28;20517;-72
2021/05/17 01:08:25;;;;;;;6.23;3.77;;;9.50;99.90;;;;;;5019197;28;20432;-72
2021/05/17 01:10:53;;;;;;;5.70;4.20;;;9.50;99.90;;;;;;5035617;28;20792;-72
2021/05/17 01:13:19;;;;;;;4.10;3.70;;;9.50;99.90;;;;;;5019519;28;20418;-72
2021/05/17 01:15:47;;;;;;;4.00;3.60;;;9.40;99.90;;;;;;5016127;28;20456;-72
2021/05/17 01:18:17;;;;;;;6.17;3.77;;;9.30;99.90;;;;;;5019468;28;20421;-72
2021/05/17 01:20:47;;;;;;;3.63;2.90;;;9.30;99.90;;;;;;5026722;28;20420;-72
2021/05/17 01:25:55;;;;;;;3.40;2.80;;;9.30;99.90;;;;;;5017753;28;20425;-72
2021/05/17 01:28:24;;;;;;;4.30;3.30;;;9.30;99.90;;;;;;5019775;28;20428;-72
2021/05/17 01:30:52;;;;;;;3.37;3.10;;;9.20;99.90;;;;;;5016447;28;20812;-72
2021/05/17 01:33:17;;;;;;;4.00;3.67;;;9.20;99.90;;;;;;5018459;28;20525;-72
2021/05/17 01:35:44;;;;;;;5.83;4.17;;;9.20;99.90;;;;;;5017327;28;20911;-72
2021/05/17 01:38:13;;;;;;;4.00;3.70;;;9.10;99.90;;;;;;5017753;28;20682;-72
2021/05/17 01:40:43;;;;;;;4.27;3.87;;;9.10;99.90;;;;;;5015261;28;20524;-72
2021/05/17 01:43:11;;;;;;;3.87;3.37;;;9.10;99.90;;;;;;5016131;28;20478;-72
2021/05/17 01:45:38;;;;;;;5.90;3.77;;;9.00;99.90;;;;;;5014318;28;20761;-72
2021/05/17 01:48:04;;;;;;;3.43;3.23;;;8.90;99.90;;;;;;5019457;28;20449;-72
2021/05/17 01:50:31;;;;;;;4.87;3.37;;;8.90;99.90;;;;;;5018631;28;20495;-72
2021/05/17 01:52:58;;;;;;;4.27;3.50;;;8.90;99.90;;;;;;5015515;28;20493;-72
2021/05/17 01:55:24;;;;;;;4.40;4.00;;;8.80;99.90;;;;;;5019395;28;20425;-72
2021/05/17 01:58:11;;;;;;;3.87;3.57;;;8.80;99.90;;;;;;5016534;28;20456;-72
2021/05/17 02:00:40;;;;;;;3.93;3.60;;;8.80;99.90;;;;;;5019738;28;20435;-72
2021/05/17 02:03:10;;;;;;;4.40;3.60;;;8.70;99.90;;;;;;5018474;28;20895;-72
2021/05/17 02:05:35;;;;;;;3.53;3.17;;;8.70;99.90;;;;;;5019916;28;20460;-72
2021/05/17 02:08:05;;;;;;;3.33;3.03;;;8.70;99.90;;;;;;5019974;28;20914;-72
2021/05/17 02:10:31;;;;;;;3.47;3.17;;;8.60;99.90;;;;;;5019617;28;20452;-72
2021/05/17 02:12:58;;;;;;;10.30;3.97;;;8.50;99.90;;;;;;5019742;28;20433;-72
2021/05/17 02:15:25;;;;;;;3.13;2.93;;;8.50;99.90;;;;;;5017163;28;20433;-72
2021/05/17 02:18:08;;;;;;;3.90;3.60;;;8.40;99.90;;;;;;5012740;28;20437;-72
2021/05/17 02:20:36;;;;;;;3.80;3.50;;;8.40;99.90;;;;;;5023943;28;20424;-72
2021/05/17 02:23:08;;;;;;;3.43;3.23;;;8.40;99.90;;;;;;5024576;28;20910;-72
2021/05/17 02:25:34;;;;;;;3.73;3.43;;;8.40;99.90;;;;;;5022286;28;20494;-72
2021/05/17 02:28:00;;;;;;;5.53;3.50;;;8.30;99.90;;;;;;5023269;28;20512;-72
2021/05/17 02:30:26;;;;;;;3.37;3.17;;;8.30;99.90;;;;;;5024064;28;20462;-72
2021/05/17 02:32:53;;;;;;;3.67;3.47;;;8.20;99.90;;;;;;5023441;28;20433;-72
2021/05/17 02:35:20;;;;;;;3.20;3.00;;;8.20;99.90;;;;;;5024129;28;20791;-72
2021/05/17 02:37:46;;;;;;;3.40;3.10;;;8.10;99.90;;;;;;5021697;28;20439;-71
2021/05/17 02:40:13;;;;;;;3.50;3.20;;;8.00;99.90;;;;;;5022401;28;20462;-72
2021/05/17 02:42:43;;;;;;;4.20;3.70;;;7.90;99.90;;;;;;5022120;28;20424;-72
2021/05/17 02:45:10;;;;;;;3.20;3.00;;;7.90;99.90;;;;;;5021779;28;20481;-72
2021/05/17 02:47:37;;;;;;;3.90;3.33;;;7.90;99.90;;;;;;5021819;28;20534;-72
2021/05/17 02:50:05;;;;;;;3.60;3.40;;;7.90;99.90;;;;;;5022396;28;20948;-72
2021/05/17 02:52:31;;;;;;;3.07;2.80;;;7.90;99.90;;;;;;5024049;28;20887;-71
2021/05/17 02:55:15;;;;;;;4.57;3.60;;;8.00;99.90;;;;;;5037493;28;20518;-71
2021/05/17 02:57:42;;;;;;;4.23;3.43;;;7.90;99.90;;;;;;5022481;28;20747;-72
2021/05/17 03:00:19;;;;;;;3.80;3.53;;;7.80;99.90;;;;;;5021297;28;20430;-71
2021/05/17 03:03:07;;;;;;;3.70;3.20;;;7.80;99.90;;;;;;5022546;28;20858;-72
2021/05/17 03:05:36;;;;;;;3.33;3.03;;;7.70;99.90;;;;;;5021516;28;20429;-72
2021/05/17 03:08:09;;;;;;;3.00;2.80;;;7.70;99.90;;;;;;5020049;28;20437;-71
2021/05/17 03:10:41;;;;;;;3.47;3.20;;;7.70;99.90;;;;;;5022559;28;20456;-72
2021/05/17 03:13:14;;;;;;;3.03;2.50;;;7.70;99.90;;;;;;5022989;28;20430;-72
2021/05/17 03:15:41;;;;;;;3.47;3.20;;;7.80;99.90;;;;;;5023055;28;20460;-72
2021/05/17 03:18:08;;;;;;;3.73;3.53;;;7.80;99.90;;;;;;5021374;28;20459;-72
2021/05/17 03:20:35;;;;;;;3.07;2.87;;;7.80;99.90;;;;;;5019083;28;20926;-72
2021/05/17 03:23:05;;;;;;;3.90;3.60;;;7.90;99.90;;;;;;5020549;28;20894;-72
2021/05/17 03:25:33;;;;;;;6.20;3.57;;;7.90;99.90;;;;;;5021065;28;20436;-72
2021/05/17 03:27:59;;;;;;;4.43;3.43;;;7.90;99.90;;;;;;5021033;28;20433;-72
2021/05/17 03:30:25;;;;;;;3.73;3.50;;;8.00;99.90;;;;;;5023399;28;20849;-72
2021/05/17 03:32:51;;;;;;;3.57;3.23;;;8.00;99.90;;;;;;5030889;28;20436;-72
2021/05/17 03:35:17;;;;;;;5.27;2.93;;;8.00;99.90;;;;;;5021685;28;20429;-72
2021/05/17 03:37:44;;;;;;;3.80;3.50;;;8.00;99.90;;;;;;5019725;28;20257;-72
2021/05/17 03:40:10;;;;;;;3.50;3.30;;;8.10;99.90;;;;;;5019170;28;20942;-72
2021/05/17 03:42:37;;;;;;;4.77;3.90;;;8.10;99.90;;;;;;5021566;28;20452;-72
2021/05/17 03:45:08;;;;;;;3.20;3.00;;;8.10;99.90;;;;;;5023144;28;20535;-71
2021/05/17 03:47:34;;;;;;;3.10;2.90;;;8.20;99.90;;;;;;5020151;28;20455;-72
2021/05/17 03:50:00;;;;;;;3.73;3.43;;;8.10;99.90;;;;;;5022048;28;20461;-71
2021/05/17 03:52:26;;;;;;;3.57;3.13;;;8.20;99.90;;;;;;5021391;28;20185;-72
2021/05/17 03:54:52;;;;;;;3.60;3.30;;;8.20;99.90;;;;;;5017429;28;20425;-72
2021/05/17 03:57:18;;;;;;;3.57;3.27;;;8.20;99.90;;;;;;5020308;28;20170;-72
2021/05/17 03:59:45;;;;;;;3.33;3.03;;;8.20;99.90;;;;;;5012008;28;20804;-72
2021/05/17 04:02:17;;;;;;;3.20;3.00;;;8.30;99.90;;;;;;5021983;28;20436;-72
2021/05/17 04:04:58;;;;;;;4.23;3.17;;;8.30;99.90;;;;;;5022774;28;20734;-72
2021/05/17 04:15:21;;;;;;;3.87;3.57;;;8.50;99.90;;;;;;5020304;28;20506;-72
2021/05/17 04:17:47;;;;;;;4.67;4.27;;;8.50;99.90;;;;;;5020708;28;20457;-72
2021/05/17 04:20:13;;;;;;;4.43;4.03;;;8.50;99.90;;;;;;5019807;28;20181;-72
2021/05/17 04:22:39;;;;;;;3.23;2.83;;;8.60;99.90;;;;;;5022745;28;20612;-72
2021/05/17 04:25:05;;;;;;;3.97;3.60;;;8.60;99.90;;;;;;5019594;28;20491;-72
2021/05/17 04:27:31;;;;;;;3.80;3.40;;;8.60;99.90;;;;;;5022166;28;20433;-72
2021/05/17 04:29:57;;;;;;;8.07;3.60;;;8.70;99.90;;;;;;5022172;28;20464;-72
2021/05/17 04:32:22;;;;;;;4.93;4.53;;;8.80;99.90;;;;;;5020483;28;20229;-72
2021/05/17 04:34:48;;;;;;;4.03;3.43;;;8.80;99.90;;;;;;5018267;28;20205;-72
2021/05/17 04:37:14;;;;;;;3.53;3.33;;;8.90;99.90;;;;;;5018881;28;20680;-72
2021/05/17 04:39:39;;;;;;;6.23;5.40;;;9.00;99.90;;;;;;5017875;28;20261;-72
2021/05/17 04:42:05;;;;;;;4.60;3.90;;;9.00;99.90;;;;;;5019103;28;20216;-72
2021/05/17 04:44:32;;;;;;;4.20;3.90;;;9.00;99.90;;;;;;5017112;28;20174;-72
2021/05/17 04:46:57;;;;;;;4.07;3.77;;;9.10;99.90;;;;;;5013709;28;20455;-72
2021/05/17 04:49:23;;;;;;;4.70;4.30;;;9.10;99.90;;;;;;5020132;28;20457;-72
2021/05/17 04:51:49;;;;;;;8.53;5.43;;;9.20;99.90;;;;;;5015802;28;20175;-72
2021/05/17 04:54:15;;;;;;;4.90;4.50;;;9.40;99.90;;;;;;5018468;28;20198;-72
2021/05/17 04:56:40;;;;;;;5.97;4.80;;;9.50;99.90;;;;;;5017318;28;20486;-72
2021/05/17 04:59:06;;;;;;;4.53;4.00;;;9.60;99.90;;;;;;5016366;28;20186;-72
2021/05/17 05:01:32;;;;;;;4.10;3.80;;;9.70;99.90;;;;;;5017375;28;20178;-72
2021/05/17 05:03:58;;;;;;;4.30;3.90;;;9.80;99.90;;;;;;5016399;28;20272;-72
2021/05/17 05:06:23;;;;;;;5.93;4.27;;;9.80;99.90;;;;;;5015097;28;20699;-72
2021/05/17 05:08:49;;;;;;;5.67;4.40;;;9.90;99.90;;;;;;5013004;28;20441;-72
2021/05/17 05:11:15;;;;;;;7.03;5.27;;;9.90;99.90;;;;;;5015298;28;20245;-72
2021/05/17 05:13:40;;;;;;;4.23;3.93;;;10.00;99.90;;;;;;5015592;28;20258;-72
2021/05/17 05:16:06;;;;;;;4.67;3.60;;;10.10;99.90;;;;;;5014210;28;20370;-72
2021/05/17 05:18:31;;;;;;;5.10;4.70;;;10.10;99.90;;;;;;5016323;28;20214;-72
2021/05/17 05:20:57;;;;;;;8.20;5.13;;;10.10;99.90;;;;;;5015060;28;20181;-72
2021/05/17 05:23:23;;;;;;;5.77;5.17;;;10.10;99.90;;;;;;5010874;28;20700;-72
2021/05/17 05:28:20;;;;;;;6.30;5.63;;;10.10;99.90;;;;;;5014805;28;20213;-72
2021/05/17 05:33:30;;;;;;;6.03;5.43;;;10.20;99.90;;;;;;5017347;28;20465;-72
2021/05/17 05:35:56;;;;;;;7.90;6.00;;;10.20;99.90;;;;;;5012657;28;20429;-72
2021/05/17 05:38:22;;;;;;;5.87;5.37;;;10.20;99.90;;;;;;5015283;28;20248;-73
2021/05/17 05:40:48;;;;;;;6.10;5.60;;;10.20;99.90;;;;;;5016101;28;20437;-73
2021/05/17 05:43:13;;;;;;;7.10;5.70;;;10.20;99.90;;;;;;5013955;28;20222;-72
2021/05/17 05:45:45;;;;;;;5.20;4.57;;;10.10;99.90;;;;;;5009941;28;20194;-73
2021/05/17 05:48:12;;;;;;;6.17;5.57;;;10.10;99.90;;;;;;5010962;28;20214;-72
2021/05/17 05:50:38;;;;;;;5.57;4.93;;;10.10;99.90;;;;;;5015724;28;20488;-72
2021/05/17 05:53:05;;;;;;;8.73;5.50;;;10.10;99.90;;;;;;5013477;28;20926;-73
2021/05/17 05:55:30;;;;;;;5.53;5.00;;;10.20;99.90;;;;;;5014643;28;20430;-73
2021/05/17 05:57:57;;;;;;;7.00;6.40;;;10.20;99.90;;;;;;5014561;28;20895;-73
2021/05/17 06:00:29;;;;;;;6.90;5.30;;;10.20;99.90;;;;;;5018083;28;20207;-73
2021/05/17 06:02:56;;;;;;;11.83;6.00;;;10.20;99.90;;;;;;5016804;28;20831;-73
2021/05/17 06:05:21;;;;;;;8.70;6.90;;;10.40;99.90;;;;;;5015894;28;20543;-73
2021/05/17 06:07:47;;;;;;;7.80;5.70;;;10.40;99.90;;;;;;5016972;28;21025;-73
2021/05/17 06:10:13;;;;;;;7.00;6.30;;;10.50;99.90;;;;;;5018845;28;20199;-73
2021/05/17 06:12:40;;;;;;;6.47;5.83;;;10.60;99.90;;;;;;5018942;28;20666;-73
2021/05/17 06:15:10;;;;;;;7.90;5.30;;;10.60;99.90;;;;;;5009789;28;20425;-73
2021/05/17 06:17:36;;;;;;;12.40;7.97;;;10.60;99.90;;;;;;5014406;28;20432;-73
2021/05/17 06:20:03;;;;;;;8.57;6.10;;;10.80;99.90;;;;;;5018005;28;20433;-73
2021/05/17 06:22:30;;;;;;;7.37;6.47;;;10.80;99.90;;;;;;5015043;28;20455;-73
2021/05/17 06:24:57;;;;;;;7.00;6.30;;;10.90;99.90;;;;;;5009310;28;20452;-73
2021/05/17 06:27:23;;;;;;;9.67;6.17;;;10.90;99.90;;;;;;5019605;28;20829;-73
2021/05/17 06:29:54;;;;;;;6.10;5.60;;;10.90;99.90;;;;;;5016139;28;20472;-73
2021/05/17 06:32:22;;;;;;;5.60;5.10;;;10.90;99.90;;;;;;5019180;28;20174;-73
2021/05/17 06:34:49;;;;;;;8.17;5.70;;;11.20;99.90;;;;;;5015672;28;20491;-73
2021/05/17 06:37:15;;;;;;;5.97;4.70;;;11.30;99.90;;;;;;5009823;28;20937;-74
2021/05/17 06:39:41;;;;;;;5.57;5.00;;;11.40;99.90;;;;;;5015136;28;20440;-72
2021/05/17 06:42:07;;;;;;;7.57;6.33;;;11.50;99.90;;;;;;5012037;28;20206;-73
2021/05/17 06:44:33;;;;;;;5.57;4.83;;;11.50;99.90;;;;;;5014080;28;20179;-73
2021/05/17 06:46:59;;;;;;;6.57;4.67;;;11.60;99.90;;;;;;5013812;28;20775;-73
2021/05/17 06:49:27;;;;;;;5.93;5.27;;;11.70;99.90;;;;;;5017585;28;20460;-73
2021/05/17 06:51:54;;;;;;;5.27;4.77;;;12.00;99.90;;;;;;5015470;28;20202;-73
2021/05/17 06:54:24;;;;;;;7.20;5.07;;;12.10;99.90;;;;;;5034604;28;20744;-73
2021/05/17 06:56:55;;;;;;;6.37;4.20;;;12.10;99.90;;;;;;5019817;28;20463;-73
2021/05/17 06:59:23;;;;;;;7.70;4.07;;;12.20;99.90;;;;;;5019086;28;20429;-72
2021/05/17 07:01:49;;;;;;;5.50;4.33;;;12.10;99.90;;;;;;5017188;28;20443;-73
2021/05/17 07:04:16;;;;;;;4.77;3.73;;;12.20;99.90;;;;;;5019652;28;20437;-73
2021/05/17 07:06:51;;;;;;;6.30;3.93;;;12.20;99.90;;;;;;5019133;28;20639;-73
2021/05/17 07:12:05;;;;;;;4.37;4.00;;;12.10;99.90;;;;;;5012639;28;20575;-73
2021/05/17 07:14:30;;;;;;;5.50;3.87;;;12.00;99.90;;;;;;5020472;28;20847;-72
2021/05/17 07:16:56;;;;;;;3.73;3.43;;;12.20;99.90;;;;;;5021060;28;20429;-73
2021/05/17 07:19:22;;;;;;;4.07;3.70;;;12.20;99.90;;;;;;5020677;28;20186;-73
2021/05/17 07:24:32;;;;;;;2.90;2.70;;;12.70;99.90;;;;;;5020150;28;20282;-73
2021/05/17 07:26:57;;;;;;;5.00;4.43;;;12.60;99.90;;;;;;5017928;28;20436;-72
2021/05/17 07:29:23;;;;;;;3.60;3.30;;;12.60;99.90;;;;;;5021755;28;20210;-72
2021/05/17 07:31:49;;;;;;;7.07;2.90;;;12.80;99.90;;;;;;5019979;28;20642;-73
2021/05/17 07:34:15;;;;;;;7.90;3.50;;;12.80;99.90;;;;;;5022632;28;20453;-72
2021/05/17 07:36:41;;;;;;;3.30;2.97;;;12.90;99.90;;;;;;5022639;28;20185;-72
2021/05/17 07:39:08;;;;;;;3.50;3.30;;;12.90;99.90;;;;;;5019532;28;20412;-73
2021/05/17 07:41:33;;;;;;;4.77;3.40;;;12.80;99.90;;;;;;5019967;28;20190;-72
2021/05/17 07:43:59;;;;;;;4.23;3.27;;;12.90;99.90;;;;;;5020957;28;20790;-72
2021/05/17 07:46:25;;;;;;;4.77;3.20;;;13.00;99.90;;;;;;5018682;28;20232;-73
2021/05/17 07:49:12;;;;;;;3.30;3.00;;;13.10;99.90;;;;;;5020947;28;20252;-73
2021/05/17 07:51:39;;;;;;;2.60;2.40;;;13.10;99.90;;;;;;5022523;28;20498;-73
2021/05/17 07:54:05;;;;;;;3.33;2.80;;;13.30;99.90;;;;;;5023017;28;20457;-73
2021/05/17 07:56:31;;;;;;;3.53;2.50;;;13.40;99.90;;;;;;5019966;28;20426;-73
2021/05/17 07:58:57;;;;;;;3.23;2.40;;;13.40;99.90;;;;;;5018830;28;20443;-73
2021/05/17 08:01:23;;;;;;;2.17;2.00;;;13.40;99.90;;;;;;5020891;28;20194;-73
2021/05/17 08:03:50;;;;;;;1.63;1.53;;;13.60;99.90;;;;;;5019563;28;20789;-73
2021/05/17 08:06:17;;;;;;;1.60;1.50;;;13.60;99.90;;;;;;5016109;28;20174;-73
2021/05/17 08:08:43;;;;;;;2.40;1.70;;;13.50;99.90;;;;;;5012045;28;20429;-73
2021/05/17 08:11:09;;;;;;;1.80;1.70;;;13.40;99.90;;;;;;5014033;28;20492;-74
2021/05/17 08:13:34;;;;;;;3.67;1.50;;;13.40;99.90;;;;;;5018455;28;20468;-73
2021/05/17 08:16:00;;;;;;;2.60;1.47;;;13.50;99.90;;;;;;5016194;28;20676;-73
2021/05/17 08:18:26;;;;;;;2.07;1.40;;;13.50;99.90;;;;;;5018613;28;20239;-73
2021/05/17 08:20:51;;;;;;;2.40;1.73;;;13.50;99.90;;;;;;5017977;28;20174;-74
2021/05/17 08:23:17;;;;;;;1.80;1.70;;;13.60;99.90;;;;;;5016628;28;20247;-74
2021/05/17 08:25:45;;;;;;;1.73;1.63;;;13.70;99.90;;;;;;5016052;28;20189;-75
2021/05/17 08:28:11;;;;;;;5.20;1.37;;;13.90;99.90;;;;;;5016804;28;20525;-75
2021/05/17 08:30:42;;;;;;;2.50;1.80;;;14.20;99.90;;;;;;5019382;28;20820;-74
2021/05/17 08:33:09;;;;;;;4.43;2.00;;;14.30;99.90;;;;;;5017311;28;20426;-74
2021/05/17 08:35:36;;;;;;;6.37;1.97;;;14.40;99.90;;;;;;5013516;28;20509;-73
2021/05/17 08:38:02;;;;;;;2.80;1.90;;;14.40;99.90;;;;;;5034170;28;20578;-73
2021/05/17 08:40:28;;;;;;;3.03;2.20;;;14.20;99.90;;;;;;5021021;28;20541;-74
2021/05/17 08:42:55;;;;;;;4.10;2.60;;;14.10;99.90;;;;;;5021428;28;20552;-73
2021/05/17 08:45:22;;;;;;;2.87;2.63;;;14.10;99.90;;;;;;5018960;28;20425;-74
2021/05/17 08:47:47;;;;;;;2.13;2.03;;;14.10;99.90;;;;;;5015897;28;20448;-73
2021/05/17 08:50:13;;;;;;;3.07;2.53;;;14.10;99.90;;;;;;5018875;28;20506;-73
2021/05/17 08:52:40;;;;;;;3.10;1.90;;;14.10;99.90;;;;;;5020380;28;20189;-74
2021/05/17 08:55:12;;;;;;;2.90;2.07;;;14.30;99.90;;;;;;5020947;28;20961;-73
2021/05/17 08:57:38;;;;;;;2.90;2.10;;;14.50;99.90;;;;;;5012420;28;20452;-73
2021/05/17 09:00:05;;;;;;;3.93;3.27;;;14.50;99.90;;;;;;5012983;28;20437;-74
2021/05/17 09:02:31;;;;;;;3.87;2.00;;;14.70;99.90;;;;;;5020477;28;20439;-73
2021/05/17 09:05:24;;;;;;;2.70;2.50;;;14.90;99.90;;;;;;5016300;28;20441;-73
2021/05/17 09:07:52;;;;;;;2.60;2.40;;;15.20;99.90;;;;;;5002662;28;20786;-73
2021/05/17 09:10:18;;;;;;;6.20;3.00;;;15.30;99.90;;;;;;5015102;28;20457;-73
2021/05/17 09:13:08;;;;;;;2.90;2.00;;;15.40;99.90;;;;;;5016401;28;20776;-73
2021/05/17 09:15:54;;;;;;;2.70;2.60;;;15.30;99.90;;;;;;5017253;28;20421;-74
2021/05/17 09:18:27;;;;;;;2.60;2.50;;;15.10;99.90;;;;;;5018162;28;20481;-73
2021/05/17 09:20:55;;;;;;;2.20;2.00;;;15.10;99.90;;;;;;5015257;28;20777;-73
2021/05/17 09:23:32;;;;;;;4.07;2.60;;;15.00;99.90;;;;;;5019712;28;20433;-73
2021/05/17 09:26:10;;;;;;;2.33;2.10;;;15.10;99.90;;;;;;5012035;28;20429;-73
2021/05/17 09:28:48;;;;;;;2.57;2.43;;;15.20;99.90;;;;;;5021714;28;20429;-74
2021/05/17 09:31:21;;;;;;;2.50;2.30;;;15.40;99.90;;;;;;5017964;28;20460;-73
2021/05/17 09:33:50;;;;;;;2.03;1.90;;;15.50;99.90;;;;;;5018042;28;20527;-73
2021/05/17 09:36:42;;;;;;;3.50;2.10;;;15.50;99.90;;;;;;5001663;28;20466;-73
2021/05/17 09:39:11;;;;;;;2.60;2.40;;;15.60;99.90;;;;;;5014491;28;20453;-73
2021/05/17 09:41:45;;;;;;;4.00;2.17;;;15.60;99.90;;;;;;5020742;28;20433;-74
2021/05/17 09:44:22;;;;;;;5.30;2.97;;;15.50;99.90;;;;;;5021147;28;20404;-74
2021/05/17 09:47:08;;;;;;;4.07;2.27;;;15.50;99.90;;;;;;5018645;28;20444;-74
2021/05/17 09:50:01;;;;;;;3.90;3.03;;;15.40;99.90;;;;;;5010648;28;20493;-74
2021/05/17 09:52:34;;;;;;;3.77;2.60;;;15.30;99.90;;;;;;5013508;28;20441;-74
2021/05/17 09:55:07;;;;;;;4.63;2.57;;;15.20;99.90;;;;;;5015959;28;20425;-74
2021/05/17 09:57:47;;;;;;;1.80;1.70;;;15.10;99.90;;;;;;5017213;28;20421;-74
2021/05/17 10:00:15;;;;;;;3.10;1.97;;;15.10;99.90;;;;;;5022379;28;20774;-75
2021/05/17 10:02:53;;;;;;;2.83;1.73;;;15.00;99.90;;;;;;5013100;28;20485;-75
2021/05/17 10:05:25;;;;;;;4.93;1.67;;;14.90;99.90;;;;;;5019344;28;20425;-74
2021/05/17 10:08:04;;;;;;;2.23;1.23;;;14.60;99.90;;;;;;5007904;28;20487;-75
2021/05/17 10:10:32;;;;;;;1.47;1.00;;;14.40;99.90;;;;;;5019931;28;20524;-75
2021/05/17 10:13:03;;;;;;;1.00;1.00;;;14.10;99.90;;;;;;5017019;28;20429;-75
2021/05/17 10:15:30;;;;;;;0.97;0.97;;;13.90;99.90;;;;;;5018500;28;20436;-75
2021/05/17 10:17:59;;;;;;;1.20;1.03;;;13.70;99.90;;;;;;5018899;28;20464;-74
2021/05/17 10:20:26;;;;;;;1.97;1.33;;;13.60;99.90;;;;;;5018281;28;20424;-74
2021/05/17 10:22:54;;;;;;;1.43;1.30;;;13.40;99.90;;;;;;5016553;28;20425;-74
2021/05/17 10:25:29;;;;;;;1.20;1.20;;;13.40;99.90;;;;;;5019462;28;20433;-75
2021/05/17 10:28:06;;;;;;;4.50;1.40;;;13.40;99.90;;;;;;5015104;28;20439;-74
2021/05/17 10:30:34;;;;;;;1.20;1.10;;;13.30;99.90;;;;;;5017408;28;20566;-74
2021/05/17 10:33:10;;;;;;;1.53;1.43;;;13.30;99.90;;;;;;5019538;28;20476;-74
2021/05/17 10:35:48;;;;;;;1.50;1.40;;;13.10;99.90;;;;;;5036084;28;20922;-75
2021/05/17 10:38:14;;;;;;;1.47;1.37;;;13.20;99.90;;;;;;5021052;28;20444;-74
2021/05/17 10:40:43;;;;;;;1.43;1.43;;;13.30;99.90;;;;;;5021926;28;20511;-74
2021/05/17 10:43:24;;;;;;;1.60;1.50;;;13.50;99.90;;;;;;5019855;28;20949;-74
2021/05/17 10:48:50;;;;;;;1.50;1.40;;;14.00;99.90;;;;;;5016459;28;21000;-74
2021/05/17 10:51:19;;;;;;;1.40;1.40;;;14.40;99.90;;;;;;5019598;28;20460;-74
2021/05/17 10:53:53;;;;;;;1.47;1.37;;;14.80;99.90;;;;;;5010306;28;20245;-74
2021/05/17 11:02:19;;;;;;;2.00;1.90;;;15.80;99.90;;;;;;5018307;28;20467;-74
2021/05/17 11:04:47;;;;;;;1.13;1.03;;;16.00;99.90;;;;;;5022419;28;20437;-74
2021/05/17 11:07:44;;;;;;;1.83;1.50;;;15.90;99.90;;;;;;5019050;28;20429;-74
2021/05/17 11:10:20;;;;;;;1.13;1.13;;;16.00;99.90;;;;;;5021708;28;20542;-74
2021/05/17 11:12:52;;;;;;;1.07;1.07;;;16.00;99.90;;;;;;5016930;28;20428;-74
2021/05/17 11:15:20;;;;;;;1.40;1.40;;;16.00;99.90;;;;;;5018128;28;20460;-73
2021/05/17 11:18:04;;;;;;;1.30;1.30;;;16.00;99.90;;;;;;5018063;28;20425;-73
2021/05/17 11:20:48;;;;;;;1.83;1.30;;;16.10;99.90;;;;;;5022168;28;20442;-73
2021/05/17 11:23:36;;;;;;;1.70;1.60;;;16.00;99.90;;;;;;5018619;28;20456;-74
2021/05/17 11:28:48;;;;;;;3.13;1.30;;;15.80;99.90;;;;;;5022600;28;20429;-74
2021/05/17 11:33:56;;;;;;;1.70;1.60;;;15.90;99.90;;;;;;5017969;28;20436;-73
2021/05/17 11:36:27;;;;;;;2.03;1.93;;;16.00;99.90;;;;;;5020274;28;20425;-74
2021/05/17 11:39:11;;;;;;;3.20;1.40;;;16.30;99.90;;;;;;5020390;28;20490;-73
2021/05/17 11:41:45;;;;;;;4.47;1.97;;;16.20;99.90;;;;;;5021694;28;20433;-74
2021/05/17 11:44:13;;;;;;;1.80;1.70;;;16.30;99.90;;;;;;5014774;28;20430;-74
2021/05/17 11:46:49;;;;;;;2.20;2.10;;;16.40;99.90;;;;;;5014177;28;20469;-74
2021/05/17 11:49:21;;;;;;;2.50;2.40;;;16.50;99.90;;;;;;5006418;28;20422;-74
2021/05/17 11:51:48;;;;;;;2.10;1.90;;;16.40;99.90;;;;;;5017339;28;23485;-74
2021/05/17 11:54:15;;;;;;;1.80;1.70;;;16.50;99.90;;;;;;5018475;28;20425;-74
2021/05/17 11:56:45;;;;;;;2.80;2.63;;;16.60;99.90;;;;;;5019320;28;20451;-74
2021/05/17 11:59:14;;;;;;;2.20;2.10;;;16.60;99.90;;;;;;5022995;28;20703;-74
2021/05/17 12:01:42;;;;;;;1.90;1.80;;;16.80;99.90;;;;;;5020198;28;20431;-74
2021/05/17 12:04:24;;;;;;;2.30;2.20;;;16.80;99.90;;;;;;5018396;28;20469;-74
2021/05/17 12:06:58;;;;;;;2.20;1.93;;;16.90;99.90;;;;;;5009145;28;20425;-74
2021/05/17 12:09:40;;;;;;;2.00;1.90;;;16.90;99.90;;;;;;5021666;28;20421;-75
2021/05/17 12:12:20;;;;;;;2.10;2.00;;;16.70;99.90;;;;;;5020272;28;20428;-74
2021/05/17 12:14:54;;;;;;;2.03;1.93;;;16.60;99.90;;;;;;5022193;28;20448;-75
2021/05/17 12:17:22;;;;;;;2.10;1.87;;;16.70;99.90;;;;;;5022269;28;20786;-74
2021/05/17 12:19:52;;;;;;;2.13;1.93;;;17.00;99.90;;;;;;5022590;28;20498;-74
2021/05/17 12:22:24;;;;;;;1.87;1.77;;;17.30;99.90;;;;;;5024106;28;20436;-74
2021/05/17 12:24:51;;;;;;;2.17;1.67;;;17.30;99.90;;;;;;5020444;28;20478;-74
2021/05/17 12:27:18;;;;;;;1.97;1.67;;;17.30;99.90;;;;;;5022052;28;20594;-73
2021/05/17 12:30:07;;;;;;;2.00;1.80;;;17.20;99.90;;;;;;5022501;28;20923;-74
2021/05/17 12:32:34;;;;;;;2.40;2.20;;;17.00;99.90;;;;;;5006101;28;20449;-73
2021/05/17 12:35:04;;;;;;;3.43;2.10;;;16.80;99.90;;;;;;5002191;28;20502;-71
2021/05/17 12:37:33;;;;;;;2.40;2.30;;;16.70;99.90;;;;;;5000781;28;20430;-72
2021/05/17 12:40:10;;;;;;;3.00;2.70;;;16.70;99.90;;;;;;5013864;28;20513;-72
2021/05/17 12:42:37;;;;;;;5.00;2.60;;;17.20;99.90;;;;;;5013598;28;20437;-72
2021/05/17 12:45:14;;;;;;;2.40;2.30;;;17.80;99.90;;;;;;5015514;28;20476;-72
2021/05/17 12:47:45;;;;;;;3.17;2.60;;;18.30;99.90;;;;;;5018237;28;20455;-72
2021/05/17 12:50:25;;;;;;;3.97;2.70;;;18.70;99.90;;;;;;5016191;28;20457;-72
2021/05/17 12:53:06;;;;;;;2.70;2.50;;;19.00;99.90;;;;;;5006968;28;20814;-72
2021/05/17 12:55:41;;;;;;;3.70;3.40;;;19.00;99.90;;;;;;5018117;28;20440;-72
2021/05/17 12:58:07;;;;;;;2.87;2.73;;;19.10;99.90;;;;;;5026021;28;20961;-72
2021/05/17 13:00:40;;;;;;;3.87;3.30;;;18.90;99.90;;;;;;5007920;28;20438;-72
2021/05/17 13:03:24;;;;;;;3.23;3.03;;;18.80;99.90;;;;;;5011062;28;20432;-72
2021/05/17 13:06:14;;;;;;;3.97;3.67;;;18.80;99.90;;;;;;5009646;28;20674;-72
2021/05/17 13:08:39;;;;;;;3.20;3.00;;;18.60;99.90;;;;;;5012081;28;20822;-72
2021/05/17 13:11:07;;;;;;;2.80;2.70;;;18.40;99.90;;;;;;5018608;28;20461;-72
2021/05/17 13:13:43;;;;;;;2.73;2.53;;;18.20;99.90;;;;;;5013588;28;20276;-72
2021/05/17 13:16:22;;;;;;;4.00;3.70;;;18.10;99.90;;;;;;5008572;28;20486;-73
2021/05/17 13:19:41;;;;;;;6.33;5.73;;;18.00;99.90;;;;;;5011158;28;20444;-73
2021/05/17 13:23:03;;;;;;;4.70;4.30;;;17.80;99.90;;;;;;5015738;28;21004;-73
2021/05/17 13:30:57;;;;;;;8.27;5.63;;;17.20;99.90;;;;;;5011051;28;21055;-73
2021/05/17 13:33:37;;;;;;;10.67;8.00;;;17.10;99.90;;;;;;5011639;28;20440;-72
2021/05/17 13:36:06;;;;;;;4.87;4.43;;;17.10;99.90;;;;;;5025806;28;20992;-73
2021/05/17 13:38:35;;;;;;;11.23;8.90;;;17.00;99.90;;;;;;5013330;28;20433;-72
2021/05/17 13:41:02;;;;;;;6.30;5.37;;;17.10;99.90;;;;;;5015250;28;20429;-72
2021/05/17 13:43:28;;;;;;;6.83;5.30;;;17.10;99.90;;;;;;5016377;28;21067;-73
2021/05/17 13:45:54;;;;;;;3.00;2.90;;;17.00;99.90;;;;;;5017385;28;20443;-73